Time;durP1;ratioP1;P1;durP2;ratioP2;P2;SDS_P1;SDS_P2;PMS_P1;PMS_P2;Temp;Humidity;BMP_temperature;BMP_pressure;BME280_temperature;BME280_humidity;BME280_pressure;Samples;Min_cycle;Max_cycle;Signal;HPM_P1;HPM_P2
2022/09/05 00:00:18;;;;;;;7.88;4.05;;;19.80;99.90;;;;;;5036396;28;20468;-77
2022/09/05 00:02:48;;;;;;;6.85;4.07;;;20.00;99.90;;;;;;5041994;28;20049;-76
2022/09/05 00:05:43;;;;;;;5.45;3.60;;;19.80;99.90;;;;;;5035049;28;20033;-77
2022/09/05 00:08:27;;;;;;;7.85;3.40;;;19.70;99.90;;;;;;5034878;28;20036;-76
2022/09/05 00:11:11;;;;;;;5.60;3.60;;;19.60;99.90;;;;;;5034258;28;20080;-76
2022/09/05 00:13:45;;;;;;;6.38;3.28;;;19.60;99.90;;;;;;5035321;28;20272;-76
2022/09/05 00:16:58;;;;;;;7.90;3.80;;;19.60;99.90;;;;;;5035821;28;20025;-76
2022/09/05 00:19:45;;;;;;;6.63;3.30;;;19.60;99.90;;;;;;5033754;28;20045;-76
2022/09/05 00:22:39;;;;;;;5.18;3.10;;;19.60;99.90;;;;;;5036143;28;20037;-77
2022/09/05 00:25:35;;;;;;;8.00;3.47;;;19.60;99.90;;;;;;5049999;28;20040;-76
2022/09/05 00:28:43;;;;;;;6.07;3.30;;;19.70;99.90;;;;;;5039854;28;20853;-77
2022/09/05 00:31:14;;;;;;;5.95;3.33;;;19.70;99.90;;;;;;5048532;28;20063;-76
2022/09/05 00:34:17;;;;;;;4.85;3.15;;;19.50;99.90;;;;;;5054501;28;20063;-77
2022/09/05 00:36:54;;;;;;;5.15;3.33;;;19.40;99.90;;;;;;5049888;28;20025;-77
2022/09/05 00:39:20;;;;;;;6.50;3.00;;;19.40;99.90;;;;;;5033319;28;20436;-76
2022/09/05 00:41:53;;;;;;;5.10;3.40;;;19.40;99.90;;;;;;5047852;28;20056;-77
2022/09/05 00:44:21;;;;;;;4.75;3.28;;;19.40;99.90;;;;;;5033460;28;20029;-77
2022/09/05 00:47:14;;;;;;;5.80;2.92;;;19.40;99.90;;;;;;5035419;28;20412;-76
2022/09/05 00:49:54;;;;;;;5.03;2.75;;;19.30;99.90;;;;;;5032544;28;20029;-76
2022/09/05 00:52:30;;;;;;;4.43;2.95;;;19.30;99.90;;;;;;5051664;28;20037;-76
2022/09/05 00:55:35;;;;;;;6.22;3.35;;;19.30;99.90;;;;;;5049285;28;20048;-76
2022/09/05 00:58:37;;;;;;;4.63;3.22;;;19.30;99.90;;;;;;5047486;28;20508;-77
2022/09/05 01:01:26;;;;;;;5.03;3.13;;;19.20;99.90;;;;;;5033908;28;20072;-76
2022/09/05 01:04:12;;;;;;;5.85;3.45;;;19.30;99.90;;;;;;5046348;28;20356;-76
2022/09/05 01:06:56;;;;;;;5.05;3.50;;;19.20;99.90;;;;;;5047588;28;20033;-76
2022/09/05 01:09:27;;;;;;;7.43;3.72;;;19.20;99.90;;;;;;5038453;28;20064;-76
2022/09/05 01:12:15;;;;;;;4.80;3.30;;;19.20;99.90;;;;;;5041113;28;20067;-77
2022/09/05 01:15:14;;;;;;;5.70;2.80;;;19.20;99.90;;;;;;5053562;28;20068;-76
2022/09/05 01:17:48;;;;;;;7.03;3.30;;;19.10;99.90;;;;;;5044269;28;20096;-76
2022/09/05 01:20:52;;;;;;;6.78;3.80;;;19.10;99.90;;;;;;5050674;28;20470;-77
2022/09/05 01:24:01;;;;;;;4.93;3.17;;;19.10;99.90;;;;;;5034251;28;20029;-76
2022/09/05 01:26:54;;;;;;;4.32;3.15;;;19.10;99.90;;;;;;5044345;28;20055;-77
2022/09/05 01:30:05;;;;;;;6.63;3.50;;;19.10;99.90;;;;;;5034282;28;20109;-77
2022/09/05 01:33:01;;;;;;;6.45;3.50;;;19.10;99.90;;;;;;5030685;28;20500;-76
2022/09/05 01:35:27;;;;;;;7.70;3.53;;;19.00;99.90;;;;;;5033824;28;20064;-76
2022/09/05 01:37:58;;;;;;;6.22;3.50;;;19.10;99.90;;;;;;5038330;28;20076;-76
2022/09/05 01:40:29;;;;;;;5.97;4.13;;;19.00;99.90;;;;;;5041285;28;20086;-77
2022/09/05 01:43:32;;;;;;;6.32;3.08;;;19.00;99.90;;;;;;5047836;28;20025;-76
2022/09/05 01:46:18;;;;;;;4.45;3.08;;;19.10;99.90;;;;;;5032180;28;20167;-76
2022/09/05 01:49:06;;;;;;;4.88;2.97;;;19.10;99.90;;;;;;5042743;28;20033;-77
2022/09/05 01:51:34;;;;;;;7.03;3.95;;;19.10;99.90;;;;;;5038274;28;20053;-77
2022/09/05 01:54:38;;;;;;;7.85;4.28;;;19.20;99.90;;;;;;5042916;28;20490;-77
2022/09/05 01:57:17;;;;;;;5.13;3.45;;;19.20;99.90;;;;;;5047067;28;20399;-76
2022/09/05 01:59:58;;;;;;;4.43;3.00;;;19.40;99.90;;;;;;5037015;28;20063;-77
2022/09/05 02:02:47;;;;;;;7.85;3.72;;;19.40;99.90;;;;;;5031647;28;20175;-76
2022/09/05 02:05:51;;;;;;;4.78;3.22;;;19.40;99.90;;;;;;5034813;28;20112;-77
2022/09/05 02:08:34;;;;;;;5.35;3.28;;;19.50;99.90;;;;;;5033601;28;20064;-76
2022/09/05 02:11:08;;;;;;;5.60;3.70;;;19.50;99.90;;;;;;5037735;28;20583;-76
2022/09/05 02:13:34;;;;;;;6.28;4.10;;;19.40;99.90;;;;;;5032652;28;20530;-76
2022/09/05 02:16:24;;;;;;;5.95;3.60;;;19.30;99.90;;;;;;5032352;28;20053;-77
2022/09/05 02:18:53;;;;;;;6.78;3.72;;;19.40;99.90;;;;;;5051334;28;20032;-77
2022/09/05 02:21:32;;;;;;;5.03;3.45;;;19.30;99.90;;;;;;5039721;28;20526;-76
2022/09/05 02:24:08;;;;;;;4.82;2.58;;;19.10;99.90;;;;;;5038214;28;20427;-77
2022/09/05 02:26:44;;;;;;;9.02;3.50;;;19.10;99.90;;;;;;5031196;28;20032;-76
2022/09/05 02:29:18;;;;;;;5.07;3.47;;;19.00;99.90;;;;;;5045717;28;20035;-76
2022/09/05 02:31:57;;;;;;;5.18;3.47;;;19.00;99.90;;;;;;5038779;28;20056;-77
2022/09/05 02:34:35;;;;;;;6.60;3.67;;;18.90;99.90;;;;;;5050112;28;20036;-76
2022/09/05 02:37:41;;;;;;;5.22;3.15;;;18.80;99.90;;;;;;5049529;28;20110;-76
2022/09/05 02:40:20;;;;;;;5.72;3.38;;;18.80;99.90;;;;;;5032210;28;20499;-77
2022/09/05 02:43:00;;;;;;;6.43;3.25;;;18.70;99.90;;;;;;5039153;28;20033;-76
2022/09/05 02:45:56;;;;;;;6.85;3.40;;;18.60;99.90;;;;;;5029812;28;20037;-76
2022/09/05 02:48:41;;;;;;;5.50;3.50;;;18.80;99.90;;;;;;5041737;28;20112;-77
2022/09/05 02:51:21;;;;;;;4.85;3.60;;;18.60;99.90;;;;;;5049747;28;20069;-76
2022/09/05 02:54:03;;;;;;;6.82;3.65;;;18.70;99.90;;;;;;5042450;28;20498;-76
2022/09/05 02:56:53;;;;;;;4.68;3.50;;;18.60;99.90;;;;;;5041316;28;20028;-76
2022/09/05 02:59:58;;;;;;;5.13;3.58;;;18.70;99.90;;;;;;5041440;28;20033;-76
2022/09/05 03:02:29;;;;;;;4.82;3.42;;;18.50;99.90;;;;;;5037473;28;20036;-75
2022/09/05 03:05:07;;;;;;;4.40;2.75;;;18.50;99.90;;;;;;5038800;28;20029;-75
2022/09/05 03:08:04;;;;;;;7.97;3.60;;;18.40;99.90;;;;;;5032755;28;20039;-75
2022/09/05 03:10:54;;;;;;;5.90;3.33;;;18.50;99.90;;;;;;5032196;28;20045;-75
2022/09/05 03:13:51;;;;;;;5.60;3.50;;;18.50;99.90;;;;;;5044908;28;20383;-76
2022/09/05 03:16:54;;;;;;;5.28;3.45;;;18.50;99.90;;;;;;5033802;28;20494;-76
2022/09/05 03:19:53;;;;;;;6.75;3.40;;;18.60;99.90;;;;;;5023829;28;20041;-75
2022/09/05 03:22:36;;;;;;;5.70;3.80;;;18.60;99.90;;;;;;5033642;28;20039;-75
2022/09/05 03:25:34;;;;;;;6.72;3.40;;;18.70;99.90;;;;;;5043178;28;20033;-75
2022/09/05 03:28:37;;;;;;;5.05;3.50;;;18.70;99.90;;;;;;5035248;28;20063;-75
2022/09/05 03:31:25;;;;;;;5.35;3.55;;;18.60;99.90;;;;;;5026365;28;20045;-76
2022/09/05 03:33:56;;;;;;;7.97;3.67;;;18.50;99.90;;;;;;5029957;28;20037;-75
2022/09/05 03:36:22;;;;;;;6.28;3.60;;;18.60;99.90;;;;;;5042889;28;20028;-75
2022/09/05 03:38:47;;;;;;;5.18;3.75;;;18.50;99.90;;;;;;5031948;28;20051;-75
2022/09/05 03:41:43;;;;;;;7.15;3.70;;;18.50;99.90;;;;;;5031820;28;20053;-75
2022/09/05 03:44:46;;;;;;;6.88;3.45;;;18.40;99.90;;;;;;5039514;28;20029;-75
2022/09/05 03:47:32;;;;;;;4.90;3.30;;;18.40;99.90;;;;;;5044839;28;20090;-75
2022/09/05 03:50:23;;;;;;;5.05;3.53;;;18.30;99.90;;;;;;5031427;28;20080;-75
2022/09/05 03:53:12;;;;;;;8.63;3.85;;;18.20;99.90;;;;;;5031375;28;20047;-76
2022/09/05 03:55:56;;;;;;;5.85;4.20;;;18.10;99.90;;;;;;5033819;28;20073;-75
2022/09/05 03:58:46;;;;;;;4.65;3.05;;;18.00;99.90;;;;;;5043512;28;20646;-75
2022/09/05 04:01:51;;;;;;;6.90;3.83;;;18.00;99.90;;;;;;5043953;28;20033;-75
2022/09/05 04:05:08;;;;;;;6.80;3.83;;;18.10;99.90;;;;;;5026449;28;20048;-75
2022/09/05 04:07:53;;;;;;;8.43;4.03;;;18.20;99.90;;;;;;5028905;28;20033;-75
2022/09/05 04:10:39;;;;;;;5.45;3.17;;;18.10;99.90;;;;;;5022600;28;20746;-75
2022/09/05 04:13:21;;;;;;;6.75;3.28;;;18.20;99.90;;;;;;5040131;28;20056;-78
2022/09/05 04:15:59;;;;;;;5.53;4.05;;;18.20;99.90;;;;;;5023549;28;20120;-76
2022/09/05 04:18:38;;;;;;;5.25;3.97;;;18.30;99.90;;;;;;5033728;28;20036;-75
2022/09/05 04:21:11;;;;;;;4.75;3.35;;;18.30;99.90;;;;;;5036061;28;20033;-76
2022/09/05 04:23:51;;;;;;;6.53;3.40;;;18.00;99.90;;;;;;5028609;28;20057;-77
2022/09/05 04:26:38;;;;;;;6.18;2.90;;;18.00;99.90;;;;;;5021921;28;20092;-75
2022/09/05 04:29:22;;;;;;;7.35;3.97;;;18.00;99.90;;;;;;5035702;28;20033;-77
2022/09/05 04:32:21;;;;;;;5.53;3.63;;;18.10;99.90;;;;;;5042432;28;20041;-75
2022/09/05 04:35:21;;;;;;;7.95;4.07;;;18.00;99.90;;;;;;5025253;28;20029;-75
2022/09/05 04:38:07;;;;;;;6.68;3.83;;;17.90;99.90;;;;;;5028000;28;20071;-77
2022/09/05 04:40:50;;;;;;;5.57;3.50;;;17.90;99.90;;;;;;5027474;28;20025;-75
2022/09/05 04:43:43;;;;;;;8.27;3.38;;;17.90;99.90;;;;;;5037766;28;20151;-75
2022/09/05 04:46:47;;;;;;;5.32;3.42;;;17.90;99.90;;;;;;5035063;28;20074;-76
2022/09/05 04:49:18;;;;;;;7.13;4.20;;;17.90;99.90;;;;;;5024895;28;20049;-76
2022/09/05 04:52:21;;;;;;;6.07;3.28;;;17.90;99.90;;;;;;5029956;28;20604;-75
2022/09/05 04:54:56;;;;;;;5.78;3.85;;;17.90;99.90;;;;;;5043138;28;20028;-77
2022/09/05 04:57:24;;;;;;;;;;;18.00;99.90;;;;;;5034569;28;20114;-75
2022/09/05 05:00:02;;;;;;;4.88;3.22;;;17.90;99.90;;;;;;5027018;28;19909;-75
2022/09/05 05:02:49;;;;;;;7.20;3.63;;;17.90;99.90;;;;;;5026745;28;20064;-76
2022/09/05 05:05:25;;;;;;;4.68;3.30;;;18.00;99.90;;;;;;5031641;28;20037;-75
2022/09/05 05:07:57;;;;;;;6.70;3.40;;;18.10;99.90;;;;;;5042374;28;20033;-75
2022/09/05 05:10:26;;;;;;;4.72;3.22;;;18.20;99.90;;;;;;5044873;28;20057;-77
2022/09/05 05:12:59;;;;;;;5.15;3.88;;;18.40;99.90;;;;;;5046092;28;20029;-76
2022/09/05 05:15:27;;;;;;;6.22;4.10;;;18.40;99.90;;;;;;5040102;28;20144;-75
2022/09/05 05:18:04;;;;;;;6.32;3.53;;;18.50;99.90;;;;;;5046174;28;20028;-76
2022/09/05 05:20:58;;;;;;;6.63;3.72;;;18.60;99.90;;;;;;5028359;28;20029;-75
2022/09/05 05:23:38;;;;;;;5.65;3.70;;;18.70;99.90;;;;;;5031209;28;20120;-76
2022/09/05 05:26:26;;;;;;;9.18;3.20;;;18.70;99.90;;;;;;5024605;28;20025;-76
2022/09/05 05:29:01;;;;;;;5.65;3.67;;;18.80;99.90;;;;;;5027923;28;20026;-77
2022/09/05 05:31:37;;;;;;;5.97;3.53;;;18.70;99.90;;;;;;5043446;28;20047;-76
2022/09/05 05:34:14;;;;;;;8.35;4.32;;;18.70;99.90;;;;;;5036754;28;20033;-77
2022/09/05 05:37:02;;;;;;;5.38;3.88;;;18.70;99.90;;;;;;5035868;28;20408;-76
2022/09/05 05:39:29;;;;;;;5.45;3.22;;;18.80;99.90;;;;;;5039061;28;20033;-75
2022/09/05 05:41:56;;;;;;;5.60;3.65;;;18.70;99.90;;;;;;5025668;28;20042;-73
2022/09/05 05:44:35;;;;;;;6.32;3.65;;;18.70;99.90;;;;;;5035441;28;20600;-75
2022/09/05 05:47:19;;;;;;;4.63;3.20;;;18.80;99.90;;;;;;5041229;28;20391;-77
2022/09/05 05:50:09;;;;;;;5.32;3.30;;;18.80;99.90;;;;;;5027352;28;20101;-77
2022/09/05 05:53:08;;;;;;;5.13;3.10;;;18.80;99.90;;;;;;5041669;28;20063;-76
2022/09/05 05:56:15;;;;;;;7.95;2.95;;;18.90;99.90;;;;;;5036507;28;20503;-76
2022/09/05 05:59:32;;;;;;;7.35;3.50;;;19.00;99.90;;;;;;5028270;28;20102;-76
2022/09/05 06:01:57;;;;;;;4.90;3.45;;;19.10;99.90;;;;;;4989588;28;20725;-77
2022/09/05 06:04:41;;;;;;;5.00;3.35;;;19.20;99.90;;;;;;5031639;28;20041;-76
2022/09/05 06:07:20;;;;;;;5.15;3.55;;;19.20;99.90;;;;;;5025738;28;20044;-76
2022/09/05 06:10:23;;;;;;;7.72;3.63;;;19.20;99.90;;;;;;5024584;28;20097;-76
2022/09/05 06:13:29;;;;;;;4.60;3.08;;;19.20;99.90;;;;;;5033148;28;20045;-76
2022/09/05 06:16:46;;;;;;;8.40;3.60;;;19.20;99.90;;;;;;5033625;28;20459;-77
2022/09/05 06:19:48;;;;;;;5.80;3.90;;;19.10;99.90;;;;;;5024654;28;20035;-77
2022/09/05 06:22:53;;;;;;;4.72;2.85;;;19.30;99.90;;;;;;5035641;28;20040;-76
2022/09/05 06:25:52;;;;;;;5.53;3.53;;;19.50;99.90;;;;;;5034599;28;20033;-77
2022/09/05 06:28:51;;;;;;;4.70;3.10;;;19.60;99.90;;;;;;5024341;28;20036;-77
2022/09/05 06:31:50;;;;;;;4.40;3.08;;;19.60;99.90;;;;;;5032556;28;20053;-77
2022/09/05 06:34:37;;;;;;;6.05;3.70;;;19.60;99.90;;;;;;5042600;28;20025;-77
2022/09/05 06:37:31;;;;;;;7.25;3.85;;;19.70;99.90;;;;;;5028536;28;20479;-76
2022/09/05 06:40:11;;;;;;;7.13;4.10;;;19.60;99.90;;;;;;5024681;28;20673;-77
2022/09/05 06:42:45;;;;;;;9.13;3.50;;;19.50;99.90;;;;;;5026632;28;20032;-77
2022/09/05 06:45:36;;;;;;;5.82;3.72;;;19.60;99.90;;;;;;5024530;28;20040;-77
2022/09/05 06:48:11;;;;;;;4.10;3.20;;;19.70;99.90;;;;;;5037408;28;20116;-77
2022/09/05 06:51:15;;;;;;;9.13;4.10;;;19.50;99.90;;;;;;5040888;28;20720;-76
2022/09/05 06:53:55;;;;;;;5.45;3.50;;;19.50;99.90;;;;;;5030532;28;20360;-79
2022/09/05 06:56:47;;;;;;;6.70;3.22;;;20.00;99.90;;;;;;5041153;28;20033;-76
2022/09/05 06:59:34;;;;;;;6.18;3.28;;;20.60;99.90;;;;;;5032278;28;20132;-77
2022/09/05 07:02:08;;;;;;;9.07;3.92;;;22.90;99.90;;;;;;5036975;28;20025;-77
2022/09/05 07:04:40;;;;;;;6.40;2.85;;;24.20;99.40;;;;;;5035616;28;20029;-77
2022/09/05 07:07:05;;;;;;;5.40;2.78;;;25.70;97.90;;;;;;5025166;28;20040;-78
2022/09/05 07:09:31;;;;;;;5.95;2.70;;;26.30;95.60;;;;;;5021628;28;20037;-78
2022/09/05 07:12:15;;;;;;;6.80;3.58;;;26.00;95.40;;;;;;5028245;28;20601;-78
2022/09/05 07:15:08;;;;;;;5.28;3.15;;;25.90;95.90;;;;;;5030086;28;20029;-77
2022/09/05 07:17:48;;;;;;;5.15;2.55;;;26.60;95.10;;;;;;5026519;28;20061;-77
2022/09/05 07:20:22;;;;;;;6.00;2.65;;;26.30;94.80;;;;;;5027339;28;20037;-78
2022/09/05 07:22:50;;;;;;;5.40;2.25;;;24.60;95.40;;;;;;5025654;28;20029;-78
2022/09/05 07:25:21;;;;;;;4.30;2.85;;;23.00;97.80;;;;;;5029547;28;20025;-78
2022/09/05 07:27:47;;;;;;;9.98;3.25;;;21.90;99.10;;;;;;5042371;28;20021;-77
2022/09/05 07:30:16;;;;;;;6.78;3.40;;;21.20;99.90;;;;;;5030908;28;20171;-76
2022/09/05 07:32:44;;;;;;;4.82;3.00;;;21.00;99.90;;;;;;5037059;28;20033;-77
2022/09/05 07:35:21;;;;;;;4.53;2.75;;;20.80;99.90;;;;;;5034268;28;20017;-77
2022/09/05 07:37:56;;;;;;;5.80;2.95;;;20.80;99.90;;;;;;5029395;28;20069;-77
2022/09/05 07:40:23;;;;;;;4.53;3.03;;;20.60;99.90;;;;;;5039461;28;20031;-77
2022/09/05 07:43:00;;;;;;;4.70;3.05;;;20.60;99.90;;;;;;5047219;28;20135;-77
2022/09/05 07:45:28;;;;;;;4.18;2.67;;;20.40;99.90;;;;;;5030081;28;20025;-77
2022/09/05 07:48:05;;;;;;;6.10;2.95;;;20.50;99.90;;;;;;5028942;28;20037;-77
2022/09/05 07:50:36;;;;;;;5.47;3.22;;;20.60;99.90;;;;;;5031738;28;20077;-77
2022/09/05 07:53:05;;;;;;;6.05;3.35;;;20.60;99.90;;;;;;5031353;28;20521;-76
2022/09/05 07:55:36;;;;;;;4.80;3.30;;;20.70;99.90;;;;;;5033477;28;20029;-77
2022/09/05 07:58:06;;;;;;;4.28;3.22;;;20.90;99.90;;;;;;5026808;28;20124;-76
2022/09/05 08:00:34;;;;;;;6.15;3.00;;;21.00;99.90;;;;;;5029080;28;20064;-77
2022/09/05 08:03:10;;;;;;;6.53;3.67;;;21.10;99.90;;;;;;5045856;28;20033;-77
2022/09/05 08:05:42;;;;;;;4.93;3.28;;;21.10;99.90;;;;;;5029150;28;20513;-76
2022/09/05 08:08:17;;;;;;;5.57;2.88;;;21.20;99.90;;;;;;5030566;28;20036;-77
2022/09/05 08:11:10;;;;;;;4.93;2.88;;;21.30;99.90;;;;;;5042875;28;20044;-77
2022/09/05 08:13:42;;;;;;;8.52;3.20;;;21.30;99.90;;;;;;5030272;28;20120;-76
2022/09/05 08:16:13;;;;;;;4.40;3.30;;;21.20;99.90;;;;;;5030332;28;20079;-77
2022/09/05 08:18:48;;;;;;;7.93;2.55;;;21.30;99.90;;;;;;5048274;28;20052;-77
2022/09/05 08:21:33;;;;;;;6.68;3.15;;;21.40;99.90;;;;;;5045642;28;20092;-77
2022/09/05 08:24:19;;;;;;;4.50;2.67;;;21.40;99.90;;;;;;5033423;28;20175;-77
2022/09/05 08:27:21;;;;;;;4.65;2.97;;;21.50;99.90;;;;;;5045959;28;20025;-77
2022/09/05 08:29:53;;;;;;;5.95;3.08;;;21.50;99.90;;;;;;5038889;28;20042;-77
2022/09/05 08:32:45;;;;;;;5.93;2.90;;;21.50;99.90;;;;;;5030105;28;20136;-77
2022/09/05 08:35:34;;;;;;;5.07;2.70;;;21.50;99.90;;;;;;5033564;28;20389;-77
2022/09/05 08:38:00;;;;;;;5.50;3.80;;;21.50;99.90;;;;;;5026711;28;20034;-77
2022/09/05 08:40:36;;;;;;;6.43;3.40;;;21.50;99.90;;;;;;5030433;28;20139;-77
2022/09/05 08:43:31;;;;;;;4.60;3.00;;;21.50;99.90;;;;;;5049960;28;20033;-76
2022/09/05 08:46:02;;;;;;;6.93;3.33;;;21.60;99.90;;;;;;5028822;28;20044;-77
2022/09/05 08:48:28;;;;;;;5.95;2.83;;;21.70;99.90;;;;;;5031708;28;20036;-77
2022/09/05 08:51:03;;;;;;;10.98;3.10;;;21.70;99.90;;;;;;5035066;28;20053;-77
2022/09/05 08:53:44;;;;;;;5.45;3.03;;;21.70;99.90;;;;;;5032497;28;20021;-77
2022/09/05 08:56:10;;;;;;;9.18;3.03;;;22.90;99.30;;;;;;5034424;28;20028;-77
2022/09/05 08:58:57;;;;;;;5.28;2.78;;;24.80;97.10;;;;;;5033095;28;20033;-77
2022/09/05 09:01:58;;;;;;;6.82;2.85;;;26.70;94.90;;;;;;5049554;28;20110;-77
2022/09/05 09:04:34;;;;;;;4.40;2.40;;;27.50;94.60;;;;;;5028316;28;20061;-77
2022/09/05 09:07:25;;;;;;;10.35;3.17;;;27.90;94.20;;;;;;5033171;28;20360;-77
2022/09/05 09:09:59;;;;;;;5.78;3.10;;;26.40;93.80;;;;;;5029932;28;20084;-77
2022/09/05 09:12:46;;;;;;;10.13;2.88;;;24.70;96.10;;;;;;5029835;28;20118;-77
2022/09/05 09:15:19;;;;;;;7.15;3.05;;;25.90;95.40;;;;;;5045418;28;20037;-77
2022/09/05 09:17:48;;;;;;;6.72;3.03;;;26.20;94.70;;;;;;5041236;28;20038;-77
2022/09/05 09:20:41;;;;;;;4.32;3.03;;;27.90;93.70;;;;;;5026134;28;20124;-78
2022/09/05 09:23:39;;;;;;;5.45;3.45;;;28.00;93.70;;;;;;5031739;28;20033;-78
2022/09/05 09:26:17;;;;;;;4.30;2.72;;;28.40;93.50;;;;;;5031256;28;20518;-77
2022/09/05 09:28:48;;;;;;;9.82;3.17;;;28.50;93.00;;;;;;5046294;28;20098;-77
2022/09/05 09:31:21;;;;;;;9.48;3.30;;;28.40;92.80;;;;;;5029544;28;20064;-77
2022/09/05 09:34:14;;;;;;;4.18;3.00;;;28.50;92.50;;;;;;5038460;28;20025;-77
2022/09/05 09:37:27;;;;;;;3.87;2.63;;;28.30;92.70;;;;;;5026358;28;20033;-77
2022/09/05 09:40:11;;;;;;;4.25;2.97;;;27.00;93.40;;;;;;5031469;28;20307;-77
2022/09/05 09:42:37;;;;;;;4.45;3.13;;;26.20;94.30;;;;;;5025961;28;20585;-77
2022/09/05 09:45:15;;;;;;;7.45;3.08;;;25.10;94.30;;;;;;5025003;28;20049;-77
2022/09/05 09:48:15;;;;;;;4.82;3.17;;;24.80;94.40;;;;;;5024312;28;20030;-77
2022/09/05 09:51:07;;;;;;;8.65;3.22;;;24.60;95.10;;;;;;5039231;28;20044;-77
2022/09/05 09:53:55;;;;;;;9.15;3.05;;;24.10;95.30;;;;;;5045737;28;20045;-77
2022/09/05 09:56:49;;;;;;;5.53;3.17;;;24.00;95.80;;;;;;5044946;28;20033;-77
2022/09/05 10:00:06;;;;;;;7.40;2.85;;;24.40;96.20;;;;;;5045298;28;20072;-78
2022/09/05 10:02:32;;;;;;;5.03;3.05;;;24.60;96.50;;;;;;5025367;28;20345;-77
2022/09/05 10:05:33;;;;;;;6.75;3.13;;;24.80;96.50;;;;;;5028192;28;20086;-78
2022/09/05 10:08:10;;;;;;;11.45;3.90;;;24.60;95.50;;;;;;5023763;28;20049;-77
2022/09/05 10:11:03;;;;;;;3.63;2.53;;;24.50;96.10;;;;;;5030933;28;20041;-79
2022/09/05 10:13:47;;;;;;;6.60;3.30;;;24.50;95.90;;;;;;5043096;28;20028;-78
2022/09/05 10:16:25;;;;;;;5.22;3.78;;;24.50;95.50;;;;;;5044470;28;20025;-77
2022/09/05 10:18:57;;;;;;;4.68;3.05;;;24.50;95.60;;;;;;5043422;28;20612;-77
2022/09/05 10:21:37;;;;;;;11.45;3.40;;;24.60;95.50;;;;;;5031624;28;20053;-78
2022/09/05 10:24:22;;;;;;;5.13;3.50;;;24.80;95.90;;;;;;5025229;28;20034;-77
2022/09/05 10:26:53;;;;;;;;;;;25.30;96.40;;;;;;5044488;28;20474;-78
2022/09/05 10:30:12;;;;;;;5.72;2.92;;;25.70;95.60;;;;;;5038908;28;20358;-77
2022/09/05 10:32:52;;;;;;;4.80;2.88;;;25.80;95.50;;;;;;5043502;28;20053;-77
2022/09/05 10:35:25;;;;;;;5.13;3.30;;;25.70;95.80;;;;;;5026611;28;20072;-77
2022/09/05 10:38:01;;;;;;;6.97;3.42;;;25.80;95.90;;;;;;5024843;28;20042;-78
2022/09/05 10:40:32;;;;;;;4.22;2.80;;;25.50;96.10;;;;;;5024244;28;20034;-78
2022/09/05 10:43:10;;;;;;;4.78;3.00;;;25.60;96.20;;;;;;5024611;28;20017;-78
2022/09/05 10:45:55;;;;;;;5.28;3.08;;;25.50;96.00;;;;;;5025102;28;20140;-77
2022/09/05 10:48:37;;;;;;;5.75;3.58;;;25.40;95.70;;;;;;5040679;28;20558;-75
2022/09/05 10:51:29;;;;;;;4.60;3.30;;;25.50;95.70;;;;;;5047336;28;20130;-75
2022/09/05 10:54:19;;;;;;;4.85;3.30;;;25.60;95.60;;;;;;5045181;28;20044;-76
2022/09/05 10:57:04;;;;;;;6.82;3.33;;;25.60;95.20;;;;;;5045840;28;20035;-75
2022/09/05 11:00:02;;;;;;;4.20;3.30;;;25.50;95.90;;;;;;5046032;28;20028;-75
2022/09/05 11:02:29;;;;;;;4.97;3.13;;;25.60;96.00;;;;;;5028833;28;20569;-75
2022/09/05 11:05:18;;;;;;;4.60;3.28;;;25.80;95.30;;;;;;5024164;28;20038;-76
2022/09/05 11:08:08;;;;;;;5.60;3.88;;;26.10;95.00;;;;;;5023655;28;20100;-75
2022/09/05 11:10:47;;;;;;;6.90;3.85;;;26.10;96.40;;;;;;5022572;28;20060;-75
2022/09/05 11:13:44;;;;;;;7.00;3.72;;;26.40;96.50;;;;;;5034407;28;20037;-75
2022/09/05 11:16:25;;;;;;;4.97;3.03;;;26.60;95.70;;;;;;5023264;28;20041;-75
2022/09/05 11:19:03;;;;;;;4.90;3.13;;;26.50;95.60;;;;;;5034827;28;20029;-75
2022/09/05 11:21:39;;;;;;;4.78;3.30;;;26.50;95.40;;;;;;5043434;28;20029;-76
2022/09/05 11:24:16;;;;;;;4.82;3.22;;;26.50;95.30;;;;;;5042769;28;20112;-75
2022/09/05 11:26:48;;;;;;;4.78;3.30;;;26.60;95.90;;;;;;5043572;28;20036;-76
2022/09/05 11:29:21;;;;;;;5.07;2.85;;;26.90;95.30;;;;;;5038975;28;20052;-76
2022/09/05 11:32:34;;;;;;;4.07;3.30;;;26.90;95.50;;;;;;5043404;28;20044;-75
2022/09/05 11:35:24;;;;;;;7.00;3.08;;;26.80;95.60;;;;;;5023184;28;20042;-75
2022/09/05 11:38:03;;;;;;;5.57;2.88;;;26.90;94.80;;;;;;5028451;28;20144;-75
2022/09/05 11:40:34;;;;;;;6.57;3.35;;;26.80;94.00;;;;;;5029759;28;20129;-75
2022/09/05 11:43:18;;;;;;;4.55;3.05;;;26.80;94.40;;;;;;5023725;28;20033;-75
2022/09/05 11:46:04;;;;;;;5.40;3.08;;;26.60;94.40;;;;;;5027464;28;20717;-75
2022/09/05 11:49:15;;;;;;;5.07;3.42;;;26.60;94.80;;;;;;5040100;28;20120;-75
2022/09/05 11:52:20;;;;;;;4.03;2.80;;;26.50;93.90;;;;;;5027415;28;20494;-75
2022/09/05 11:54:54;;;;;;;4.43;2.92;;;26.80;93.60;;;;;;5046282;28;20076;-76
2022/09/05 11:57:57;;;;;;;5.88;2.47;;;27.00;93.60;;;;;;5046568;28;20036;-75
2022/09/05 12:00:53;;;;;;;3.78;2.70;;;27.20;94.70;;;;;;5038435;28;20033;-76
2022/09/05 12:03:37;;;;;;;6.60;3.55;;;27.50;94.50;;;;;;5039613;28;20029;-76
2022/09/05 12:06:57;;;;;;;5.40;3.08;;;27.80;94.50;;;;;;5042881;28;20031;-75
2022/09/05 12:09:26;;;;;;;4.65;2.85;;;27.90;93.20;;;;;;4992928;28;20109;-76
2022/09/05 12:12:07;;;;;;;4.32;2.60;;;27.90;93.80;;;;;;4984947;28;20097;-76
2022/09/05 12:14:55;;;;;;;5.82;2.50;;;27.80;93.30;;;;;;5014850;28;20048;-75
2022/09/05 12:17:42;;;;;;;9.43;2.78;;;27.70;93.20;;;;;;5044309;28;20044;-75
2022/09/05 12:20:17;;;;;;;6.13;2.45;;;27.60;93.10;;;;;;5028596;28;20029;-76
2022/09/05 12:23:06;;;;;;;4.85;2.33;;;28.20;93.10;;;;;;5028022;28;20031;-75
2022/09/05 12:25:53;;;;;;;7.55;2.30;;;28.40;92.70;;;;;;5028415;28;20029;-75
2022/09/05 12:28:39;;;;;;;3.85;2.30;;;28.50;91.20;;;;;;5043258;28;20090;-75
2022/09/05 12:31:21;;;;;;;3.78;2.25;;;28.50;90.80;;;;;;5028073;28;20160;-75
2022/09/05 12:33:51;;;;;;;6.07;2.35;;;28.60;91.90;;;;;;5039856;28;20029;-75
2022/09/05 12:36:41;;;;;;;4.93;2.38;;;28.70;91.70;;;;;;5041389;28;20065;-75
2022/09/05 12:39:23;;;;;;;4.50;2.22;;;28.60;90.70;;;;;;5026068;28;20042;-75
2022/09/05 12:42:20;;;;;;;4.65;2.40;;;28.60;91.40;;;;;;5045382;28;20173;-75
2022/09/05 12:45:08;;;;;;;3.88;2.28;;;28.30;91.50;;;;;;5044209;28;20128;-75
2022/09/05 12:47:49;;;;;;;3.58;1.98;;;28.10;91.40;;;;;;5030255;28;20161;-76
2022/09/05 12:50:16;;;;;;;4.35;2.28;;;27.90;91.40;;;;;;5026834;28;20522;-75
2022/09/05 12:52:45;;;;;;;3.67;2.20;;;27.80;91.20;;;;;;5026439;28;20071;-75
2022/09/05 12:55:16;;;;;;;5.15;2.20;;;27.70;91.20;;;;;;5043536;28;20283;-75
2022/09/05 12:57:43;;;;;;;7.88;2.60;;;27.70;91.70;;;;;;5028419;28;20033;-75
2022/09/05 13:00:11;;;;;;;4.90;2.65;;;27.70;92.10;;;;;;5026641;28;20393;-76
2022/09/05 13:02:42;;;;;;;3.53;2.42;;;27.70;92.50;;;;;;5038160;28;20478;-75
2022/09/05 13:05:20;;;;;;;4.30;2.63;;;27.70;92.50;;;;;;5036850;28;20450;-75
2022/09/05 13:07:54;;;;;;;4.25;2.75;;;27.80;92.20;;;;;;5026649;28;20041;-75
2022/09/05 13:10:29;;;;;;;4.18;2.47;;;27.80;92.00;;;;;;5031538;28;20060;-75
2022/09/05 13:12:58;;;;;;;3.42;2.00;;;27.80;91.90;;;;;;5027618;28;20104;-75
2022/09/05 13:15:34;;;;;;;4.18;2.35;;;27.80;91.70;;;;;;5031730;28;20566;-76
2022/09/05 13:18:19;;;;;;;4.30;2.38;;;27.90;91.30;;;;;;5029325;28;20132;-75
2022/09/05 13:20:54;;;;;;;6.82;2.55;;;27.90;91.80;;;;;;5038408;28;20029;-75
2022/09/05 13:23:44;;;;;;;5.68;2.30;;;27.90;91.80;;;;;;5037961;28;20083;-75
2022/09/05 13:26:24;;;;;;;4.75;2.33;;;27.80;91.60;;;;;;5035780;28;20025;-75
2022/09/05 13:28:57;;;;;;;8.10;2.65;;;27.70;91.60;;;;;;5029317;28;20041;-76
2022/09/05 13:31:41;;;;;;;4.25;2.17;;;27.70;91.80;;;;;;5045553;28;20037;-75
2022/09/05 13:34:32;;;;;;;3.95;2.50;;;27.60;91.60;;;;;;5034603;28;20943;-75
2022/09/05 13:37:05;;;;;;;9.23;2.55;;;27.60;91.90;;;;;;5041905;28;20037;-76
2022/09/05 13:39:41;;;;;;;4.05;2.22;;;27.60;92.30;;;;;;5036550;28;20140;-76
2022/09/05 13:42:16;;;;;;;4.20;2.47;;;27.70;92.70;;;;;;5038783;28;20108;-76
2022/09/05 13:44:45;;;;;;;4.70;2.50;;;27.60;92.60;;;;;;5035834;28;20033;-75
2022/09/05 13:47:13;;;;;;;4.60;2.13;;;27.70;92.50;;;;;;5026220;28;20132;-75
2022/09/05 13:49:55;;;;;;;5.30;2.30;;;27.90;92.10;;;;;;5044715;28;20029;-75
2022/09/05 13:52:32;;;;;;;3.45;2.35;;;28.00;91.40;;;;;;5045497;28;20045;-75
2022/09/05 13:55:07;;;;;;;8.13;2.45;;;28.00;91.70;;;;;;5045665;28;20064;-75
2022/09/05 13:57:49;;;;;;;10.98;3.80;;;28.00;92.30;;;;;;5044933;28;20427;-76
2022/09/05 14:00:39;;;;;;;4.68;2.28;;;28.00;92.40;;;;;;5045105;28;20083;-76
2022/09/05 14:03:24;;;;;;;5.85;2.15;;;28.00;92.50;;;;;;5024858;28;20041;-76
2022/09/05 14:06:33;;;;;;;3.70;2.40;;;28.20;93.20;;;;;;5024545;28;20116;-76
2022/09/05 14:09:23;;;;;;;3.63;2.20;;;28.30;92.00;;;;;;5032860;28;20034;-76
2022/09/05 14:11:54;;;;;;;4.05;2.65;;;28.20;92.00;;;;;;5043657;28;20385;-76